createdAt,value
2023-04-01T00:00:03.498Z,243.17
2023-04-01T00:02:31.646Z,246.80
2023-04-01T00:05:01.199Z,239.93
2023-04-01T00:07:30.814Z,238.33
2023-04-01T00:09:58.996Z,247.53
2023-04-01T00:12:27.133Z,242.90
2023-04-01T00:14:55.125Z,250.57
2023-04-01T00:17:24.280Z,251.43
2023-04-01T00:19:52.251Z,255.83
2023-04-01T00:22:21.588Z,257.67
2023-04-01T00:24:49.584Z,254.37
2023-04-01T00:27:17.802Z,250.23
2023-04-01T00:29:46.459Z,251.40
2023-04-01T00:32:14.964Z,258.90
2023-04-01T00:34:45.295Z,250.13
2023-04-01T00:37:13.398Z,258.70
2023-04-01T00:39:42.755Z,246.20
2023-04-01T00:42:12.134Z,234.17
2023-04-01T00:44:41.575Z,236.23
2023-04-01T00:47:09.686Z,236.00
2023-04-01T00:49:40.083Z,236.60
2023-04-01T00:52:10.333Z,231.17
2023-04-01T00:54:40.059Z,236.50
2023-04-01T00:57:14.032Z,240.30
2023-04-01T00:59:45.572Z,237.30
2023-04-01T01:02:15.466Z,243.57
2023-04-01T01:04:43.941Z,237.03
2023-04-01T01:07:22.605Z,249.00
2023-04-01T01:10:03.237Z,248.83
2023-04-01T01:12:39.653Z,237.60
2023-04-01T01:15:13.986Z,234.13
2023-04-01T01:17:52.272Z,241.13
2023-04-01T01:20:51.344Z,239.30
2023-04-01T01:24:10.424Z,249.23
2023-04-01T01:26:56.325Z,243.13
2023-04-01T01:29:49.186Z,244.27
2023-04-01T01:32:29.984Z,243.57
2023-04-01T01:35:09.963Z,241.83
2023-04-01T01:37:40.344Z,235.67
2023-04-01T01:40:10.953Z,231.97
2023-04-01T01:42:41.423Z,242.20
2023-04-01T01:45:12.004Z,235.30
2023-04-01T01:47:40.928Z,246.03
2023-04-01T01:50:12.716Z,245.97
2023-04-01T01:52:40.707Z,239.47
2023-04-01T01:55:28.569Z,236.53
2023-04-01T01:57:57.994Z,244.33
2023-04-01T02:00:26.327Z,244.63
2023-04-01T02:02:55.992Z,238.63
2023-04-01T02:05:27.907Z,243.13
2023-04-01T02:08:03.472Z,238.37
2023-04-01T02:10:37.339Z,234.83
2023-04-01T02:13:12.703Z,235.73
2023-04-01T02:15:44.976Z,236.47
2023-04-01T02:18:15.552Z,249.60
2023-04-01T02:20:46.678Z,243.37
2023-04-01T02:23:17.514Z,241.40
2023-04-01T02:25:47.177Z,240.80
2023-04-01T02:28:17.534Z,241.17
2023-04-01T02:30:46.578Z,241.70
2023-04-01T02:33:14.808Z,241.47
2023-04-01T02:35:44.448Z,238.47
2023-04-01T02:38:14.275Z,238.87
2023-04-01T02:40:48.500Z,238.90
2023-04-01T02:43:17.180Z,236.50
2023-04-01T02:45:45.232Z,238.40
2023-04-01T02:48:13.931Z,238.50
2023-04-01T02:50:41.977Z,235.20
2023-04-01T02:53:11.511Z,246.27
2023-04-01T02:55:39.482Z,244.80
2023-04-01T02:58:07.644Z,240.30
2023-04-01T03:00:35.738Z,247.57
2023-04-01T03:03:03.978Z,244.77
2023-04-01T03:05:32.258Z,242.23
2023-04-01T03:08:00.525Z,246.27
2023-04-01T03:10:29.993Z,235.67
2023-04-01T03:12:57.969Z,235.03
2023-04-01T03:15:25.986Z,239.60
2023-04-01T03:17:54.102Z,243.23
2023-04-01T03:20:22.113Z,244.40
2023-04-01T03:22:50.206Z,241.87
2023-04-01T03:25:18.220Z,250.63
2023-04-01T03:27:47.552Z,243.03
2023-04-01T03:30:15.664Z,240.47
2023-04-01T03:32:43.825Z,237.73
2023-04-01T03:35:12.094Z,244.10
2023-04-01T03:37:40.149Z,233.33
2023-04-01T03:40:09.249Z,234.53
2023-04-01T03:42:37.317Z,231.70
2023-04-01T03:45:07.857Z,235.50
2023-04-01T03:47:35.972Z,234.17
2023-04-01T03:50:04.169Z,237.23
2023-04-01T03:52:32.129Z,239.23
2023-04-01T03:55:00.195Z,241.63
2023-04-01T03:57:28.299Z,242.77
2023-04-01T03:59:56.305Z,241.33
2023-04-01T04:02:25.750Z,240.37
2023-04-01T04:04:53.895Z,240.13
2023-04-01T04:07:21.844Z,239.60
2023-04-01T04:09:49.860Z,239.50
2023-04-01T04:12:17.821Z,235.70
2023-04-01T04:14:45.851Z,238.33
2023-04-01T04:17:17.377Z,242.77
2023-04-01T04:19:46.878Z,229.00
2023-04-01T04:22:15.053Z,231.20
2023-04-01T04:24:45.752Z,228.70
2023-04-01T04:27:13.851Z,230.83
2023-04-01T04:29:41.973Z,226.73
2023-04-01T04:32:09.955Z,231.30
2023-04-01T04:34:37.928Z,232.73
2023-04-01T04:37:07.254Z,216.67
2023-04-01T04:39:35.304Z,228.60
2023-04-01T04:42:03.291Z,231.67
2023-04-01T04:44:31.250Z,225.47
2023-04-01T04:46:59.334Z,238.33
2023-04-01T04:49:27.292Z,228.77
2023-04-01T04:51:55.314Z,230.63
2023-04-01T04:54:24.635Z,236.30
2023-04-01T04:56:53.954Z,225.70
2023-04-01T04:59:22.194Z,224.73
2023-04-01T05:01:50.229Z,224.30
2023-04-01T05:04:18.251Z,226.63
2023-04-01T05:06:46.628Z,222.70
2023-04-01T05:09:14.940Z,221.70
2023-04-01T05:11:44.361Z,220.43
2023-04-01T05:14:15.505Z,229.40
2023-04-01T05:16:43.604Z,223.13
2023-04-01T05:19:11.619Z,232.50
2023-04-01T05:21:39.653Z,234.47
2023-04-01T05:24:11.134Z,225.60
2023-04-01T05:26:39.277Z,228.73
2023-04-01T05:29:08.661Z,229.00
2023-04-01T05:31:36.691Z,227.77
2023-04-01T05:34:04.863Z,226.90
2023-04-01T05:36:32.924Z,229.50
2023-04-01T05:39:00.939Z,236.37
2023-04-01T05:41:28.914Z,217.63
2023-04-01T05:43:57.337Z,230.80
2023-04-01T05:46:26.735Z,227.33
2023-04-01T05:48:54.887Z,209.47
2023-04-01T05:51:23.048Z,215.23
2023-04-01T05:53:51.063Z,220.20
2023-04-01T05:56:19.042Z,219.40
2023-04-01T05:58:52.301Z,208.80
2023-04-01T06:01:20.359Z,205.47
2023-04-01T06:03:49.878Z,210.73
2023-04-01T06:06:22.187Z,212.90
2023-04-01T06:08:51.355Z,220.97
2023-04-01T06:11:31.816Z,218.63
2023-04-01T06:14:19.845Z,218.23
2023-04-01T06:17:01.043Z,218.17
2023-04-01T06:19:38.395Z,218.20
2023-04-01T06:22:44.049Z,215.87
2023-04-01T06:25:30.495Z,230.13
2023-04-01T06:28:25.167Z,218.43
2023-04-01T06:31:02.779Z,224.80
2023-04-01T06:33:43.630Z,228.73
2023-04-01T06:36:33.778Z,228.00
2023-04-01T06:39:19.897Z,225.20
2023-04-01T06:42:13.876Z,240.33
2023-04-01T06:44:51.825Z,245.37
2023-04-01T06:47:36.483Z,238.83
2023-04-01T06:50:14.153Z,246.60
2023-04-01T06:52:52.641Z,249.60
2023-04-01T06:55:29.549Z,250.50
2023-04-01T06:58:01.024Z,241.30
2023-04-01T07:00:33.570Z,242.33
2023-04-01T07:03:09.637Z,250.57
2023-04-01T07:05:37.869Z,262.27
2023-04-01T07:08:12.252Z,268.10
2023-04-01T07:10:47.611Z,266.00
2023-04-01T07:13:21.301Z,264.53
2023-04-01T07:15:58.818Z,265.83
2023-04-01T07:18:34.860Z,261.73
2023-04-01T07:21:11.229Z,264.83
2023-04-01T07:23:44.681Z,264.63
2023-04-01T07:26:18.946Z,260.63
2023-04-01T07:28:47.397Z,264.47
2023-04-01T07:31:24.377Z,262.27
2023-04-01T07:34:00.653Z,265.77
2023-04-01T07:36:37.482Z,259.60
2023-04-01T07:39:20.292Z,260.90
2023-04-01T07:41:55.746Z,259.23
2023-04-01T07:44:30.360Z,261.10
2023-04-01T07:47:15.813Z,258.33
2023-04-01T07:49:55.000Z,263.90
2023-04-01T07:52:27.414Z,260.23
2023-04-01T07:55:02.020Z,268.00
2023-04-01T07:57:38.123Z,267.10
2023-04-01T08:00:14.171Z,268.17
2023-04-01T08:02:55.702Z,276.53
2023-04-01T08:05:29.176Z,272.83
2023-04-01T08:08:07.233Z,265.23
2023-04-01T08:10:42.709Z,269.80
2023-04-01T08:13:20.797Z,263.33
2023-04-01T08:15:55.514Z,272.03
2023-04-01T08:18:33.458Z,277.10
2023-04-01T08:21:03.815Z,276.97
2023-04-01T08:23:35.107Z,281.60
2023-04-01T08:26:08.816Z,273.07
2023-04-01T08:28:41.390Z,272.60
2023-04-01T08:31:14.521Z,275.80
2023-04-01T08:33:44.852Z,270.70
2023-04-01T08:36:16.619Z,264.30
2023-04-01T08:38:48.720Z,260.07
2023-04-01T08:41:44.689Z,259.40
2023-04-01T08:44:26.092Z,256.03
2023-04-01T08:47:25.705Z,272.10
2023-04-01T08:50:25.588Z,273.43
2023-04-01T08:53:02.660Z,270.30
2023-04-01T08:55:39.719Z,274.20
2023-04-01T08:58:36.533Z,263.07
2023-04-01T09:01:16.699Z,265.13
2023-04-01T09:04:00.890Z,266.73
2023-04-01T09:06:42.269Z,265.17
2023-04-01T09:09:31.494Z,268.10
2023-04-01T09:12:17.974Z,268.57
2023-04-01T09:15:14.406Z,269.00
2023-04-01T09:17:58.794Z,266.13
2023-04-01T09:20:47.743Z,263.53
2023-04-01T09:23:34.862Z,258.83
2023-04-01T09:26:29.112Z,264.80
2023-04-01T09:29:04.363Z,264.33
2023-04-01T09:31:57.569Z,262.90
2023-04-01T09:34:42.351Z,260.77
2023-04-01T09:37:22.524Z,265.57
2023-04-01T09:40:19.788Z,271.50
2023-04-01T09:43:04.338Z,271.33
2023-04-01T09:45:44.045Z,263.73
2023-04-01T09:48:26.929Z,263.40
2023-04-01T09:51:03.922Z,266.00
2023-04-01T09:53:46.682Z,267.93
2023-04-01T09:56:41.655Z,260.07
2023-04-01T09:59:39.926Z,264.00
2023-04-01T10:02:36.143Z,267.90
2023-04-01T10:05:30.232Z,265.03
2023-04-01T10:08:30.131Z,271.33
2023-04-01T10:11:42.110Z,267.87
2023-04-01T10:14:28.472Z,269.60
2023-04-01T10:17:24.207Z,263.23
2023-04-01T10:20:11.244Z,264.47
2023-04-01T10:23:04.412Z,268.50
2023-04-01T10:25:54.400Z,260.13
2023-04-01T10:28:44.720Z,264.77
2023-04-01T10:31:51.706Z,255.10
2023-04-01T10:34:46.478Z,251.53
2023-04-01T10:37:33.816Z,252.07
2023-04-01T10:40:38.715Z,262.80
2023-04-01T10:43:44.746Z,259.93
2023-04-01T10:46:40.184Z,259.13
2023-04-01T10:49:37.474Z,243.97
2023-04-01T10:52:37.792Z,240.17
2023-04-01T10:55:36.536Z,235.20
2023-04-01T10:58:41.765Z,243.43
2023-04-01T11:01:45.979Z,237.63
2023-04-01T11:05:06.721Z,246.83
2023-04-01T11:08:07.297Z,253.13
2023-04-01T11:11:15.670Z,246.37
2023-04-01T11:14:16.027Z,254.10
2023-04-01T11:17:03.951Z,256.03
2023-04-01T11:19:52.425Z,253.67
2023-04-01T11:22:35.551Z,255.60
2023-04-01T11:25:26.805Z,255.87
2023-04-01T11:28:21.268Z,256.27
2023-04-01T11:31:12.680Z,254.53
2023-04-01T11:33:46.155Z,254.10
2023-04-01T11:36:27.053Z,251.83
2023-04-01T11:39:15.952Z,254.17
2023-04-01T11:41:51.151Z,243.47
2023-04-01T11:44:21.748Z,245.07
2023-04-01T11:47:04.923Z,252.40
2023-04-01T11:49:44.314Z,245.47
2023-04-01T11:52:36.444Z,248.70
2023-04-01T11:55:34.194Z,245.53
2023-04-01T11:58:45.325Z,250.80
2023-04-01T12:01:27.306Z,249.43
2023-04-01T12:04:55.481Z,250.10
2023-04-01T12:07:34.434Z,251.23
2023-04-01T12:10:16.667Z,247.63
2023-04-01T12:13:00.766Z,258.60
2023-04-01T12:15:39.126Z,259.63
2023-04-01T12:18:18.399Z,254.73
2023-04-01T12:20:52.436Z,259.67
2023-04-01T12:23:40.213Z,258.23
2023-04-01T12:26:35.395Z,256.93
2023-04-01T12:29:30.718Z,260.13
2023-04-01T12:32:07.735Z,255.70
2023-04-01T12:35:01.977Z,251.60
2023-04-01T12:37:37.956Z,254.30
2023-04-01T12:40:41.945Z,254.20
2023-04-01T12:43:46.541Z,252.20
2023-04-01T12:46:22.287Z,251.60
2023-04-01T12:49:30.283Z,254.37
2023-04-01T12:52:11.075Z,259.27
2023-04-01T12:55:05.699Z,261.93
2023-04-01T12:58:02.948Z,264.37
2023-04-01T13:00:47.006Z,259.77
2023-04-01T13:03:39.459Z,263.63
2023-04-01T13:06:43.039Z,261.73
2023-04-01T13:09:26.281Z,262.40
2023-04-01T13:12:17.531Z,260.33
2023-04-01T13:15:07.207Z,263.80
2023-04-01T13:17:40.683Z,269.80
2023-04-01T13:20:18.518Z,269.37
2023-04-01T13:23:00.370Z,268.83
2023-04-01T13:25:38.500Z,269.27
2023-04-01T13:28:16.152Z,268.43
2023-04-01T13:30:55.927Z,261.60
2023-04-01T13:33:33.456Z,266.43
2023-04-01T13:36:15.315Z,273.23
2023-04-01T13:39:15.938Z,278.27
2023-04-01T13:42:06.113Z,275.60
2023-04-01T13:44:39.228Z,276.10
2023-04-01T13:47:52.104Z,268.83
2023-04-01T13:50:34.686Z,290.10
2023-04-01T13:53:20.978Z,287.53
2023-04-01T13:55:58.113Z,289.87
2023-04-01T13:58:57.531Z,287.57
2023-04-01T14:01:34.198Z,291.57
2023-04-01T14:04:25.046Z,292.83
2023-04-01T14:07:06.662Z,294.57
2023-04-01T14:09:50.713Z,290.73
2023-04-01T14:12:30.084Z,288.73
2023-04-01T14:15:22.641Z,287.13
2023-04-01T14:18:03.120Z,296.80
2023-04-01T14:20:38.665Z,289.53
2023-04-01T14:23:33.968Z,289.27
2023-04-01T14:26:47.884Z,284.27
2023-04-01T14:29:26.424Z,286.77
2023-04-01T14:32:07.737Z,288.50
2023-04-01T14:34:56.463Z,289.20
2023-04-01T14:38:00.597Z,287.60
2023-04-01T14:40:42.898Z,283.97
2023-04-01T14:43:41.122Z,285.53
2023-04-01T14:46:34.428Z,285.33
2023-04-01T14:49:06.171Z,283.50
2023-04-01T14:51:38.646Z,282.23
2023-04-01T14:54:17.921Z,284.33
2023-04-01T14:56:49.777Z,284.83
2023-04-01T14:59:28.805Z,286.30
2023-04-01T15:02:03.409Z,283.97
2023-04-01T15:04:56.677Z,287.53
2023-04-01T15:08:03.477Z,285.57
2023-04-01T15:11:06.734Z,285.47
2023-04-01T15:14:19.507Z,282.83
2023-04-01T15:16:57.814Z,282.90
2023-04-01T15:19:37.838Z,284.20
2023-04-01T15:22:40.661Z,283.60
2023-04-01T15:25:25.767Z,280.50
2023-04-01T15:28:02.628Z,282.53
2023-04-01T15:30:35.605Z,280.33
2023-04-01T15:33:15.944Z,280.60
2023-04-01T15:35:51.111Z,280.50
2023-04-01T15:38:29.750Z,281.27
2023-04-01T15:41:05.020Z,281.20
2023-04-01T15:43:42.761Z,284.43
2023-04-01T15:46:43.928Z,280.47
2023-04-01T15:49:24.585Z,280.70
2023-04-01T15:52:12.404Z,284.83
2023-04-01T15:55:03.061Z,279.87
2023-04-01T15:57:40.543Z,280.27
2023-04-01T16:00:26.318Z,279.43
2023-04-01T16:03:11.827Z,279.20
2023-04-01T16:05:46.141Z,282.40
2023-04-01T16:08:41.433Z,279.23
2023-04-01T16:11:25.126Z,279.43
2023-04-01T16:14:08.345Z,280.70
2023-04-01T16:16:54.085Z,277.87
2023-04-01T16:19:43.723Z,277.40
2023-04-01T16:22:19.044Z,278.30
2023-04-01T16:24:52.882Z,277.43
2023-04-01T16:27:29.353Z,279.47
2023-04-01T16:30:02.493Z,276.67
2023-04-01T16:32:39.648Z,277.43
2023-04-01T16:35:25.172Z,275.80
2023-04-01T16:37:56.214Z,278.17
2023-04-01T16:40:37.989Z,277.60
2023-04-01T16:43:16.215Z,276.73
2023-04-01T16:45:50.802Z,277.57
2023-04-01T16:48:25.136Z,274.83
2023-04-01T16:51:00.370Z,274.90
2023-04-01T16:53:39.535Z,275.13
2023-04-01T16:56:14.089Z,272.93
2023-04-01T16:58:50.381Z,271.57
2023-04-01T17:01:24.353Z,274.50
2023-04-01T17:03:59.987Z,273.57
2023-04-01T17:06:39.655Z,271.20
2023-04-01T17:09:22.613Z,271.30
2023-04-01T17:11:58.893Z,270.53
2023-04-01T17:14:32.558Z,274.87
2023-04-01T17:17:36.087Z,271.93
2023-04-01T17:20:29.938Z,270.20
2023-04-01T17:23:03.660Z,270.47
2023-04-01T17:25:47.206Z,270.73
2023-04-01T17:28:28.400Z,269.93
2023-04-01T17:31:05.045Z,268.77
2023-04-01T17:33:54.955Z,267.17
2023-04-01T17:36:39.526Z,267.57
2023-04-01T17:39:32.965Z,269.10
2023-04-01T17:42:08.301Z,262.30
2023-04-01T17:44:50.824Z,263.10
2023-04-01T17:47:35.060Z,262.77
2023-04-01T17:50:22.864Z,263.10
2023-04-01T17:53:11.774Z,264.37
2023-04-01T17:56:01.119Z,255.80
2023-04-01T17:58:35.650Z,245.90
2023-04-01T18:01:26.468Z,254.27
2023-04-01T18:04:10.601Z,265.53
2023-04-01T18:06:52.820Z,261.77
2023-04-01T18:09:31.721Z,262.53
2023-04-01T18:12:11.433Z,262.33
2023-04-01T18:15:07.430Z,262.77
2023-04-01T18:17:49.652Z,262.60
2023-04-01T18:20:30.738Z,260.20
2023-04-01T18:23:03.601Z,261.53
2023-04-01T18:25:38.396Z,260.27
2023-04-01T18:28:28.586Z,259.70
2023-04-01T18:30:59.761Z,259.27
2023-04-01T18:33:33.883Z,257.10
2023-04-01T18:36:16.214Z,259.33
2023-04-01T18:38:51.522Z,258.30
2023-04-01T18:41:30.863Z,255.40
2023-04-01T18:44:13.540Z,268.03
2023-04-01T18:46:50.125Z,259.47
2023-04-01T18:49:27.221Z,260.40
2023-04-01T18:51:59.556Z,256.50
2023-04-01T18:54:33.201Z,262.07
2023-04-01T18:57:13.013Z,263.93
2023-04-01T18:59:44.385Z,259.17
2023-04-01T19:02:28.810Z,258.63
2023-04-01T19:05:03.937Z,258.80
2023-04-01T19:07:47.313Z,261.73
2023-04-01T19:10:19.599Z,258.53
2023-04-01T19:13:03.132Z,258.23
2023-04-01T19:15:39.755Z,258.33
2023-04-01T19:18:41.963Z,259.43
2023-04-01T19:21:15.847Z,257.23
2023-04-01T19:24:19.751Z,256.90
2023-04-01T19:26:50.700Z,252.33
2023-04-01T19:29:35.109Z,260.77
2023-04-01T19:32:16.541Z,255.90
2023-04-01T19:34:54.139Z,251.07
2023-04-01T19:37:33.422Z,255.13
2023-04-01T19:40:17.646Z,257.43
2023-04-01T19:42:52.012Z,253.90
2023-04-01T19:45:34.919Z,249.23
2023-04-01T19:48:12.781Z,250.20
2023-04-01T19:50:46.047Z,250.60
2023-04-01T19:53:21.032Z,251.47
2023-04-01T19:55:57.163Z,254.10
2023-04-01T19:58:33.394Z,251.00
2023-04-01T20:01:05.277Z,248.97
2023-04-01T20:03:41.675Z,246.30
2023-04-01T20:06:19.452Z,246.50
2023-04-01T20:08:59.638Z,246.33
2023-04-01T20:11:44.245Z,248.23
2023-04-01T20:14:23.237Z,247.87
2023-04-01T20:17:22.709Z,248.80
2023-04-01T20:19:57.894Z,245.03
2023-04-01T20:22:34.347Z,246.40
2023-04-01T20:25:08.545Z,247.57
2023-04-01T20:27:43.084Z,246.00
2023-04-01T20:30:29.163Z,249.80
2023-04-01T20:33:18.718Z,247.63
2023-04-01T20:35:59.109Z,248.07
2023-04-01T20:38:57.141Z,249.43
2023-04-01T20:41:29.189Z,255.30
2023-04-01T20:44:10.229Z,249.57
2023-04-01T20:46:50.077Z,250.03
2023-04-01T20:49:43.383Z,247.37
2023-04-01T20:52:28.820Z,249.27
2023-04-01T20:55:24.962Z,243.67
2023-04-01T20:58:03.346Z,247.17
2023-04-01T21:00:42.315Z,246.90
2023-04-01T21:03:23.871Z,246.43
2023-04-01T21:06:33.482Z,249.63
2023-04-01T21:09:20.542Z,245.97
2023-04-01T21:11:58.596Z,249.10
2023-04-01T21:15:05.582Z,248.67
2023-04-01T21:17:49.567Z,245.67
2023-04-01T21:20:33.748Z,245.90
2023-04-01T21:23:20.144Z,247.33
2023-04-01T21:26:03.921Z,250.23
2023-04-01T21:28:40.625Z,246.57
2023-04-01T21:31:20.589Z,245.83
2023-04-01T21:34:06.403Z,245.07
2023-04-01T21:36:50.691Z,244.30
2023-04-01T21:39:29.740Z,243.77
2023-04-01T21:42:08.146Z,245.40
2023-04-01T21:44:54.049Z,250.07
2023-04-01T21:48:11.192Z,252.13
2023-04-01T21:50:46.615Z,247.17
2023-04-01T21:53:42.377Z,248.57
2023-04-01T21:56:59.750Z,249.20
2023-04-01T22:00:12.015Z,245.03
2023-04-01T22:03:10.342Z,245.03
2023-04-01T22:05:51.618Z,243.30
2023-04-01T22:08:42.129Z,244.03
2023-04-01T22:11:22.682Z,244.67
2023-04-01T22:13:55.165Z,245.13
2023-04-01T22:16:28.960Z,243.10
2023-04-01T22:19:07.017Z,237.63
2023-04-01T22:21:45.809Z,241.30
2023-04-01T22:24:22.212Z,241.83
2023-04-01T22:26:58.069Z,242.53
2023-04-01T22:29:32.866Z,241.97
2023-04-01T22:32:08.282Z,246.27
2023-04-01T22:34:44.680Z,240.90
2023-04-01T22:37:20.017Z,243.83
2023-04-01T22:40:10.546Z,243.50
2023-04-01T22:42:45.548Z,241.37
2023-04-01T22:45:35.208Z,242.70
2023-04-01T22:48:09.085Z,242.20
2023-04-01T22:50:42.973Z,243.50
2023-04-01T22:53:24.051Z,244.10
2023-04-01T22:55:54.593Z,243.37
2023-04-01T22:58:28.305Z,244.03
2023-04-01T23:00:59.285Z,243.17
2023-04-01T23:03:31.265Z,244.83
2023-04-01T23:06:02.738Z,243.27
2023-04-01T23:08:56.725Z,244.47
2023-04-01T23:11:27.808Z,244.33
2023-04-01T23:14:06.116Z,243.33
2023-04-01T23:16:41.644Z,244.30
2023-04-01T23:19:18.531Z,242.20
2023-04-01T23:21:53.957Z,240.60
2023-04-01T23:24:27.802Z,247.20
2023-04-01T23:27:00.752Z,242.33
2023-04-01T23:29:29.223Z,241.17
2023-04-01T23:32:01.537Z,240.73
2023-04-01T23:34:34.249Z,239.97
2023-04-01T23:37:06.813Z,238.97
2023-04-01T23:39:37.854Z,240.53
2023-04-01T23:42:09.680Z,241.50
2023-04-01T23:44:39.029Z,238.37
2023-04-01T23:47:10.078Z,238.63
2023-04-01T23:49:41.861Z,241.77
2023-04-01T23:52:19.314Z,242.07
2023-04-01T23:54:53.671Z,238.23
2023-04-01T23:57:24.920Z,238.17
